Terminal Aerodrome Forecast
Issued by NWS

Home | Current Version | Previous Version | Text Only | Print | Product List | Glossary On
Versions: 1 2 3 4 5 6 7 8 9 10 11 12 13 14 15 16 17 18 19 20 21
000
FTUS44 KTSA 171900 AAA
TAFXNA
TAF AMD
KXNA 171906Z 1719/1818 00000KT P6SM -RA BKN080 OVC090
     FM180000 09002KT 5SM -RA OVC050
     FM180300 12006KT 5SM -RA OVC025
     FM180600 14004KT 4SM -DZ BR OVC015
     FM180900 14004KT 4SM BR OVC007
     FM181200 16004KT 2SM BR OVC004=

USA.gov is the U.S. government's official web portal to all federal, state and local government web resources and services.